Galveston, TX (77550)

7:36 AM CDT on March 31, 2015 (GMT -0500)
TAMUG Waterfront Operations | | Change Station
CLOSE
Current Station
Personal Weather Station
Location: Galveston, TX
Elevation: 40 ft
Nearby Weather Stations

Elev 40 ft 29.31 °N, 94.82 °W | Updated 7 seconds ago

Clear
Clear
68.5 °F
Feels Like 68.5 °F
N
2.2
Wind Variable Wind from NW
Gusts 6.0 mph

Today
High -- | Low -- °F
--% Chance of Precip.
Yesterday
High -- | Low -- °F
Precip. -- in
7:10 AM 7:36 PM
Waxing Gibbous, 86% visible
Pressure 30.08 in
Visibility 10.0 miles
Clouds Clear
Dew Point 68 °F
Humidity 99%
Rainfall 0.00 in
Snow Depth Not available.
UV 0 out of 12
Pollen 9.50 out of 12
Air Quality Not available.
Flu Activity Not available.
METAR KGLS 311152Z 20004KT 10SM CLR 19/19 A3008 RMK AO2 SLP185 T01890189 10200 20189 53002

More Conditions Fewer Conditions

Pressure 30.08 in
Visibility 10.0 miles
Clouds Clear
Dew Point 68 °F
Humidity 99%
Rainfall 0.00 in
Snow Depth Not available.
UV 0 out of 12
Pollen 9.50 out of 12
Air Quality Not available.
Flu Activity Not available.
METAR KGLS 311152Z 20004KT 10SM CLR 19/19 A3008 RMK AO2 SLP185 T01890189 10200 20189 53002

More Conditions Fewer Conditions

10-Day Weather Forecast

Almanac

Astronomy

Mar. 31, 2015 Rise Set
Actual Time
Civil Twilight
Nautical Twilight
Astronomical Twilight
Moon
Length of Visible Light
Length of Day
Tomorrow will be .
, % of the Moon is Illuminated

Today's Extremes

State Highs State Lows

Community

WunderPhotos

Upload Photos

1,809,754 photos uploaded!

WunderBlogs® & News

Nearby

Air Quality

  Air Quality AQ Index Pollutant
Not available.

Snow Depth

Station Depth Elevation

Earthquake Activity

City Distance Mag. Time & Date
Minimum magnitude displayed is 2.5.

Coastal Water Temperatures

Place Temperature

Stations

Nearby Weather Stations

Station Location Temp. Windchill Dew Point Humidity Wind Precip. Elev Updated Type